Decoded Metar for LFSX (LUXEUIL in FRANCE) (IATA:N/A) | Meteo·Mobile Aviation Weather
aviador You're here:

LFSX Decoded Metar

LUXEUIL in FRANCE
Report Time2018-11-19 21:30:00
UTC Time2018-11-19 21:49:57
Flight Rules mvfr MVFR
Wind280° at 01 kt
W.Decomp.*RWY 29: 1.0 kt HW 0.2 kt LCW
W.Rank280° ranks 12
Current wind is below 280° avg. (4.6)
Visibility9999 m
Phenomena:Light Snow
Clouds:N/A
Expected CloudBase > 800 ft AGL from Temp-Dew spread
Ceiling1,400 ft
Temp00°C (ISA -13)
Dew Point-2°C (87% RH)
AAT-2.6°C
QNH1004 hPa
Density Alt-331 ft
Elevation896 ft
Report Wrong Elevation
Raw Report
LFSX 192130Z AUTO 28001KT CAVOK 00/M02 Q1004 TEMPO 4900 -SN
BKN014=

Extra information for LFSX:More info

Metar Taf Metar & Taf Last 4 Metars F.Rules Stats Wind Profile Meteogram Temp Stats Airport Information Weather charts Add Link Nearby VenuesMetar ALERT Operation Metar Decoded Social comments